createdAt,value
2023-01-07T00:00:46.734Z,1.20
2023-01-07T00:03:38.284Z,1.17
2023-01-07T00:06:23.867Z,1.30
2023-01-07T00:09:10.093Z,1.30
2023-01-07T00:12:10.185Z,1.20
2023-01-07T00:20:00.335Z,1.42
2023-01-07T00:22:40.025Z,1.02
2023-01-07T00:25:28.146Z,1.70
2023-01-07T00:28:03.529Z,1.25
2023-01-07T00:30:51.633Z,1.30
2023-01-07T00:33:32.762Z,1.05
2023-01-07T00:36:20.119Z,1.10
2023-01-07T00:39:09.178Z,0.80
2023-01-07T00:42:07.914Z,1.02
2023-01-07T00:44:42.363Z,0.90
2023-01-07T00:47:17.348Z,0.85
2023-01-07T00:52:54.549Z,0.85
2023-01-07T00:55:39.401Z,1.20
2023-01-07T00:58:14.527Z,1.20
2023-01-07T01:01:13.879Z,0.85
2023-01-07T01:09:11.496Z,0.75
2023-01-07T01:11:51.065Z,0.90
2023-01-07T01:14:31.961Z,0.60
2023-01-07T01:17:07.292Z,0.90
2023-01-07T01:20:02.328Z,0.80
2023-01-07T01:22:55.969Z,0.80
2023-01-07T01:25:42.265Z,0.70
2023-01-07T01:28:18.572Z,1.15
2023-01-07T01:33:54.291Z,0.60
2023-01-07T01:39:28.960Z,0.70
2023-01-07T01:44:41.249Z,1.10
2023-01-07T01:47:41.860Z,0.77
2023-01-07T01:53:29.431Z,0.90
2023-01-07T01:56:07.595Z,0.95
2023-01-07T01:59:17.737Z,0.75
2023-01-07T02:01:52.770Z,1.10
2023-01-07T02:04:34.646Z,0.70
2023-01-07T02:07:33.328Z,0.93
2023-01-07T02:12:59.686Z,0.90
2023-01-07T02:15:48.224Z,0.90
2023-01-07T02:18:50.833Z,1.02
2023-01-07T02:21:26.560Z,1.35
2023-01-07T02:24:32.151Z,1.33
2023-01-07T02:29:51.387Z,1.38
2023-01-07T02:32:47.155Z,1.40
2023-01-07T02:35:40.879Z,1.47
2023-01-07T02:41:47.731Z,1.33
2023-01-07T02:44:39.337Z,1.45
2023-01-07T02:47:32.241Z,1.55
2023-01-07T02:50:05.513Z,1.55
2023-01-07T02:52:51.107Z,1.30
2023-01-07T02:55:26.585Z,1.40
2023-01-07T02:58:25.793Z,1.10
2023-01-07T03:01:06.089Z,1.33
2023-01-07T03:03:56.101Z,1.52
2023-01-07T03:12:34.478Z,1.30
2023-01-07T03:15:38.733Z,1.75
2023-01-07T03:18:14.712Z,1.15
2023-01-07T03:20:53.502Z,1.40
2023-01-07T03:23:32.344Z,1.97
2023-01-07T03:26:31.694Z,1.67
2023-01-07T03:29:39.455Z,1.45
2023-01-07T03:32:26.339Z,1.63
2023-01-07T03:35:35.459Z,1.30
2023-01-07T03:38:13.949Z,0.95
2023-01-07T03:40:49.790Z,1.33
2023-01-07T03:43:30.481Z,1.40
2023-01-07T03:46:10.502Z,0.95
2023-01-07T03:48:49.611Z,1.05
2023-01-07T03:51:35.098Z,1.20
2023-01-07T03:54:21.445Z,1.10
2023-01-07T03:57:08.892Z,1.13
2023-01-07T03:59:48.727Z,1.02
2023-01-07T04:02:41.006Z,1.00
2023-01-07T04:05:20.373Z,0.80
2023-01-07T04:08:11.357Z,0.80
2023-01-07T04:11:07.358Z,1.00
2023-01-07T04:14:03.326Z,0.90
2023-01-07T04:16:40.993Z,0.90
2023-01-07T04:19:25.719Z,1.07
2023-01-07T04:22:10.560Z,0.90
2023-01-07T04:25:05.184Z,0.95
2023-01-07T04:33:43.567Z,0.60
2023-01-07T04:36:43.823Z,0.70
2023-01-07T04:39:23.536Z,0.60
2023-01-07T04:42:05.560Z,0.80
2023-01-07T04:44:44.516Z,1.00
2023-01-07T04:47:41.213Z,1.05
2023-01-07T04:50:52.811Z,0.85
2023-01-07T04:56:37.936Z,0.90
2023-01-07T04:59:31.942Z,0.75
2023-01-07T05:02:32.383Z,1.00
2023-01-07T05:08:17.593Z,1.20
2023-01-07T05:11:16.563Z,1.00
2023-01-07T05:14:12.158Z,1.05
2023-01-07T05:20:02.187Z,1.13
2023-01-07T05:22:50.194Z,1.10
2023-01-07T05:25:59.378Z,1.15
2023-01-07T05:29:19.134Z,1.20
2023-01-07T05:37:55.443Z,0.95
2023-01-07T05:40:38.948Z,1.15
2023-01-07T05:43:53.707Z,1.30
2023-01-07T05:49:34.989Z,1.20
2023-01-07T05:52:15.424Z,1.42
2023-01-07T05:58:10.586Z,1.50
2023-01-07T06:00:50.678Z,1.30
2023-01-07T06:03:33.069Z,1.42
2023-01-07T06:06:16.548Z,1.15
2023-01-07T06:09:00.963Z,1.30
2023-01-07T06:12:07.036Z,1.20
2023-01-07T06:14:47.006Z,1.60
2023-01-07T06:17:40.696Z,1.40
2023-01-07T06:20:15.928Z,1.60
2023-01-07T06:22:51.918Z,1.80
2023-01-07T06:25:36.563Z,1.35
2023-01-07T06:31:16.581Z,1.00
2023-01-07T06:36:54.975Z,1.50
2023-01-07T06:39:37.620Z,1.50
2023-01-07T06:44:54.242Z,1.40
2023-01-07T06:47:36.817Z,1.60
2023-01-07T06:50:04.359Z,1.30
2023-01-07T06:52:31.576Z,1.23
2023-01-07T06:55:02.857Z,1.10
2023-01-07T06:57:30.635Z,1.70
2023-01-07T07:00:05.387Z,1.30
2023-01-07T07:02:32.389Z,1.65
2023-01-07T07:05:07.095Z,1.23
2023-01-07T07:08:05.954Z,1.35
2023-01-07T07:10:34.032Z,1.55
2023-01-07T07:13:01.375Z,1.60
2023-01-07T07:15:38.191Z,1.37
2023-01-07T07:18:13.240Z,1.10
2023-01-07T07:20:47.166Z,1.60
2023-01-07T07:25:48.030Z,1.15
2023-01-07T07:28:34.658Z,1.52
2023-01-07T07:31:01.809Z,1.20
2023-01-07T07:33:32.184Z,1.00
2023-01-07T07:35:59.576Z,0.98
2023-01-07T07:38:26.787Z,1.33
2023-01-07T07:40:53.710Z,1.05
2023-01-07T07:43:20.946Z,0.80
2023-01-07T07:45:50.945Z,1.15
2023-01-07T07:48:17.847Z,1.20
2023-01-07T07:51:07.335Z,1.02
2023-01-07T07:53:41.529Z,1.13
2023-01-07T07:56:09.932Z,0.80
2023-01-07T07:58:37.116Z,0.90
2023-01-07T08:01:04.518Z,0.65
2023-01-07T08:03:31.679Z,1.15
2023-01-07T08:05:59.704Z,1.08
2023-01-07T08:08:34.668Z,0.70
2023-01-07T08:11:03.439Z,1.00
2023-01-07T08:13:31.771Z,1.08
2023-01-07T08:16:00.272Z,0.88
2023-01-07T08:18:27.605Z,0.70
2023-01-07T08:20:55.918Z,0.95
2023-01-07T08:23:24.315Z,0.88
2023-01-07T08:25:58.821Z,1.10
2023-01-07T08:28:26.428Z,0.95
2023-01-07T08:30:53.276Z,0.70
2023-01-07T08:33:20.729Z,1.08
2023-01-07T10:17:00.784Z,0.68
2023-01-07T10:19:40.051Z,1.00
2023-01-07T10:22:25.262Z,0.70
2023-01-07T10:24:59.231Z,1.20
2023-01-07T10:27:46.416Z,0.88
2023-01-07T10:30:21.848Z,0.88
2023-01-07T10:32:55.121Z,1.10
2023-01-07T10:35:24.956Z,0.90
2023-01-07T10:37:52.662Z,1.20
2023-01-07T10:40:37.838Z,1.00
2023-01-07T10:43:14.352Z,1.20
2023-01-07T10:46:20.053Z,0.80
2023-01-07T10:49:01.224Z,0.90
2023-01-07T10:51:47.110Z,0.90
2023-01-07T10:54:36.002Z,1.20
2023-01-07T10:57:24.778Z,1.15
2023-01-07T11:00:05.386Z,1.25
2023-01-07T11:02:38.758Z,1.10
2023-01-07T11:05:22.549Z,1.50
2023-01-07T11:10:44.984Z,1.40
2023-01-07T11:13:22.666Z,1.20
2023-01-07T11:16:23.705Z,1.10
2023-01-07T11:19:06.793Z,1.17
2023-01-07T11:21:46.604Z,1.30
2023-01-07T11:24:19.439Z,1.08
2023-01-07T11:27:10.694Z,1.30
2023-01-07T11:29:46.771Z,0.90
2023-01-07T11:32:42.335Z,1.20
2023-01-07T11:35:23.321Z,1.13
2023-01-07T11:37:50.550Z,1.27
2023-01-07T11:40:32.779Z,1.40
2023-01-07T11:43:20.109Z,1.20
2023-01-07T11:46:19.438Z,1.48
2023-01-07T11:48:38.620Z,1.40
2023-01-07T11:51:13.733Z,1.30
2023-01-07T11:53:46.689Z,1.40
2023-01-07T11:56:20.760Z,1.60
2023-01-07T12:01:21.652Z,1.30
2023-01-07T12:03:54.943Z,1.58
2023-01-07T12:06:29.038Z,1.33
2023-01-07T12:09:22.221Z,1.60
2023-01-07T12:11:49.668Z,1.60
2023-01-07T12:14:35.106Z,1.77
2023-01-07T12:17:03.352Z,1.90
2023-01-07T12:19:56.397Z,1.67
2023-01-07T12:22:45.377Z,1.85
2023-01-07T12:25:47.074Z,1.40
2023-01-07T12:28:18.045Z,1.40
2023-01-07T12:30:56.878Z,1.48
2023-01-07T12:36:17.733Z,1.20
2023-01-07T12:38:53.256Z,1.50
2023-01-07T12:41:25.261Z,1.40
2023-01-07T12:44:13.845Z,1.45
2023-01-07T12:46:48.699Z,1.15
2023-01-07T12:49:15.787Z,1.45
2023-01-07T12:52:14.762Z,1.27
2023-01-07T12:55:00.665Z,1.20
2023-01-07T12:57:40.234Z,1.38
2023-01-07T13:00:14.064Z,1.08
2023-01-07T13:03:01.737Z,1.13
2023-01-07T13:05:37.545Z,1.10
2023-01-07T13:09:02.855Z,1.02
2023-01-07T13:11:48.807Z,1.00
2023-01-07T13:14:31.712Z,1.33
2023-01-07T13:17:05.295Z,0.98
2023-01-07T13:19:43.210Z,0.73
2023-01-07T13:22:13.733Z,1.17
2023-01-07T13:25:12.500Z,1.08
2023-01-07T13:28:00.028Z,1.00
2023-01-07T13:30:27.275Z,1.10
2023-01-07T13:33:18.644Z,1.00
2023-01-07T13:35:54.704Z,1.10
2023-01-07T13:41:11.452Z,1.05
2023-01-07T13:43:53.660Z,1.08
2023-01-07T13:46:35.357Z,1.08
2023-01-07T13:49:04.523Z,1.05
2023-01-07T13:54:22.808Z,1.27
2023-01-07T13:56:49.988Z,1.00
2023-01-07T14:02:22.952Z,1.20
2023-01-07T14:05:05.559Z,1.13
2023-01-07T14:07:43.884Z,1.40
2023-01-07T14:10:29.916Z,1.10
2023-01-07T14:13:06.608Z,1.10
2023-01-07T14:16:24.347Z,1.10
2023-01-07T14:18:55.129Z,1.40
2023-01-07T14:21:45.916Z,1.00
2023-01-07T14:24:20.018Z,1.25
2023-01-07T14:26:57.311Z,1.10
2023-01-07T14:29:27.979Z,1.13
2023-01-07T14:32:21.587Z,1.30
2023-01-07T14:35:29.743Z,1.17
2023-01-07T14:37:57.191Z,1.50
2023-01-07T14:40:37.570Z,1.30
2023-01-07T14:43:45.832Z,1.35
2023-01-07T14:46:25.074Z,1.30
2023-01-07T14:48:58.748Z,1.35
2023-01-07T14:51:26.016Z,1.20
2023-01-07T14:56:47.029Z,1.20
2023-01-07T15:02:12.762Z,1.50
2023-01-07T15:05:01.799Z,1.30
2023-01-07T15:07:39.255Z,1.60
2023-01-07T15:10:38.113Z,1.50
2023-01-07T15:13:16.012Z,1.52
2023-01-07T15:16:03.891Z,1.23
2023-01-07T15:18:52.421Z,1.58
2023-01-07T15:21:29.068Z,1.58
2023-01-07T15:24:32.585Z,1.67
2023-01-07T15:27:13.201Z,1.23
2023-01-07T15:33:00.834Z,1.40
2023-01-07T15:35:42.097Z,1.67
2023-01-07T15:38:54.862Z,1.77
2023-01-07T15:41:36.692Z,1.60
